Time;durP1;ratioP1;P1;durP2;ratioP2;P2;SDS_P1;SDS_P2;PMS_P1;PMS_P2;Temp;Humidity;BMP_temperature;BMP_pressure;BME280_temperature;BME280_humidity;BME280_pressure;Samples;Min_cycle;Max_cycle;Signal;HPM_P1;HPM_P2
2022/12/02 00:01:47;;;;;;;89.00;43.15;;;;;;;;;;4984480;28;99680;-71
2022/12/02 00:04:24;;;;;;;97.80;50.97;;;;;;;;;;4986288;28;97989;-71
2022/12/02 00:06:52;;;;;;;96.63;49.25;;;;;;;;;;4992278;28;99696;-71
2022/12/02 00:09:18;;;;;;;89.63;47.30;;;;;;;;;;5004735;28;100389;-71
2022/12/02 00:11:45;;;;;;;101.97;51.97;;;;;;;;;;5004740;28;98304;-71
2022/12/02 00:14:24;;;;;;;94.47;49.47;;;;;;;;;;4991287;28;99838;-71
2022/12/02 00:16:51;;;;;;;88.63;46.97;;;;;;;;;;4988638;28;98552;-71
2022/12/02 00:19:17;;;;;;;97.03;49.53;;;;;;;;;;4989045;28;99415;-71
2022/12/02 00:21:44;;;;;;;100.40;50.10;;;;;;;;;;4987948;28;100086;-71
2022/12/02 00:24:10;;;;;;;106.95;51.22;;;;;;;;;;5005158;28;98414;-71
2022/12/02 00:26:36;;;;;;;98.78;51.10;;;;;;;;;;5008678;28;98854;-72
2022/12/02 00:29:03;;;;;;;90.95;47.08;;;;;;;;;;5005420;28;99434;-71
2022/12/02 00:31:29;;;;;;;101.60;51.97;;;;;;;;;;4970832;28;98796;-72
2022/12/02 00:33:56;;;;;;;92.78;49.90;;;;;;;;;;4988742;28;99323;-72
2022/12/02 00:36:23;;;;;;;95.45;49.63;;;;;;;;;;4991003;28;98721;-72
2022/12/02 00:38:50;;;;;;;89.15;46.65;;;;;;;;;;4988786;28;99320;-72
2022/12/02 00:41:16;;;;;;;102.45;51.70;;;;;;;;;;4996735;28;99453;-71
2022/12/02 00:46:31;;;;;;;86.68;46.58;;;;;;;;;;4983626;28;98607;-71
2022/12/02 00:48:58;;;;;;;86.97;43.65;;;;;;;;;;4987449;28;98905;-72
2022/12/02 00:51:25;;;;;;;94.03;48.67;;;;;;;;;;4987680;28;98242;-72
2022/12/02 00:53:52;;;;;;;87.95;47.20;;;;;;;;;;4988937;28;98626;-72
2022/12/02 00:56:18;;;;;;;98.22;50.95;;;;;;;;;;4992070;28;98857;-71
2022/12/02 00:58:45;;;;;;;97.63;48.78;;;;;;;;;;4969507;28;98953;-71
2022/12/02 01:01:11;;;;;;;93.05;49.38;;;;;;;;;;4988537;28;98861;-71
2022/12/02 01:03:37;;;;;;;63.30;29.17;;;;;;;;;;4989035;28;98250;-72
2022/12/02 01:06:11;;;;;;;87.63;46.63;;;;;;;;;;4989087;28;99206;-71
2022/12/02 01:08:37;;;;;;;92.40;46.33;;;;;;;;;;4987366;28;99101;-72
2022/12/02 01:11:03;;;;;;;94.18;49.65;;;;;;;;;;4969712;28;98379;-71
2022/12/02 01:13:30;;;;;;;93.07;46.72;;;;;;;;;;4987200;28;98577;-71
2022/12/02 01:15:56;;;;;;;90.45;49.15;;;;;;;;;;4987673;28;99141;-71
2022/12/02 01:18:23;;;;;;;98.15;50.45;;;;;;;;;;4990925;28;98378;-71
2022/12/02 01:20:49;;;;;;;92.40;48.42;;;;;;;;;;4997618;28;98968;-72
2022/12/02 01:23:16;;;;;;;84.45;40.33;;;;;;;;;;4995437;28;98259;-71
2022/12/02 01:25:42;;;;;;;90.80;47.45;;;;;;;;;;4998548;28;98405;-72
2022/12/02 01:28:08;;;;;;;92.60;48.80;;;;;;;;;;5007139;28;98982;-71
2022/12/02 01:30:35;;;;;;;95.07;45.33;;;;;;;;;;4989315;28;98464;-71
2022/12/02 01:33:01;;;;;;;93.97;46.63;;;;;;;;;;4989127;28;101039;-71
2022/12/02 01:35:28;;;;;;;89.25;46.45;;;;;;;;;;4989479;28;101722;-71
2022/12/02 01:37:54;;;;;;;96.97;48.03;;;;;;;;;;4983444;28;98370;-71
2022/12/02 01:40:20;;;;;;;95.40;46.90;;;;;;;;;;5010532;28;98795;-71
2022/12/02 01:42:47;;;;;;;96.07;45.40;;;;;;;;;;4987795;28;98280;-72
2022/12/02 01:45:14;;;;;;;82.65;42.90;;;;;;;;;;4987915;28;98319;-71
2022/12/02 01:47:40;;;;;;;82.93;42.88;;;;;;;;;;4986738;28;99032;-72
2022/12/02 01:50:09;;;;;;;90.25;44.90;;;;;;;;;;4988079;28;98331;-72
2022/12/02 01:52:36;;;;;;;84.43;42.22;;;;;;;;;;4987698;28;98494;-72
2022/12/02 01:55:05;;;;;;;94.20;44.63;;;;;;;;;;4977169;28;99152;-71
2022/12/02 01:57:31;;;;;;;84.05;40.67;;;;;;;;;;5002603;28;98675;-72
2022/12/02 01:59:58;;;;;;;82.88;44.13;;;;;;;;;;4969895;28;100938;-71
2022/12/02 02:02:29;;;;;;;83.65;41.22;;;;;;;;;;4989230;28;99056;-72
2022/12/02 02:05:00;;;;;;;91.88;44.47;;;;;;;;;;4987717;28;98255;-72
2022/12/02 02:07:28;;;;;;;90.82;42.92;;;;;;;;;;4969016;28;101421;-72
2022/12/02 02:09:54;;;;;;;84.93;42.25;;;;;;;;;;4969374;28;98272;-72
2022/12/02 02:12:21;;;;;;;74.45;37.55;;;;;;;;;;5000628;28;98599;-71
2022/12/02 02:14:48;;;;;;;85.25;41.88;;;;;;;;;;5004060;28;100945;-72
2022/12/02 02:17:14;;;;;;;90.50;43.67;;;;;;;;;;4997377;28;98881;-71
2022/12/02 02:19:43;;;;;;;85.00;42.75;;;;;;;;;;5007416;28;98399;-71
2022/12/02 02:22:18;;;;;;;76.70;36.92;;;;;;;;;;4988469;28;101332;-71
2022/12/02 02:24:45;;;;;;;76.05;38.60;;;;;;;;;;5010259;28;98290;-72
2022/12/02 02:27:12;;;;;;;84.53;40.63;;;;;;;;;;5006402;28;100001;-71
2022/12/02 02:29:40;;;;;;;64.63;29.58;;;;;;;;;;4971955;28;98298;-71
2022/12/02 02:32:07;;;;;;;75.30;39.80;;;;;;;;;;4969293;28;101101;-72
2022/12/02 02:34:33;;;;;;;75.50;38.15;;;;;;;;;;4986881;28;99221;-71
2022/12/02 02:37:00;;;;;;;74.53;39.08;;;;;;;;;;4986383;28;98228;-72
2022/12/02 02:39:26;;;;;;;73.25;35.22;;;;;;;;;;4969097;28;101109;-72
2022/12/02 02:41:54;;;;;;;72.90;37.25;;;;;;;;;;4981450;28;101981;-72
2022/12/02 02:44:21;;;;;;;74.80;37.00;;;;;;;;;;4991505;28;98677;-71
2022/12/02 02:46:52;;;;;;;52.95;26.50;;;;;;;;;;4970736;28;98999;-72
2022/12/02 02:49:19;;;;;;;84.53;37.42;;;;;;;;;;4967106;28;98356;-72
2022/12/02 02:51:45;;;;;;;69.10;31.00;;;;;;;;;;4986157;28;98752;-72
2022/12/02 02:54:12;;;;;;;73.03;35.90;;;;;;;;;;4968325;28;100714;-71
2022/12/02 02:56:39;;;;;;;67.38;30.60;;;;;;;;;;4967810;28;98553;-71
2022/12/02 02:59:05;;;;;;;76.97;36.30;;;;;;;;;;4986809;28;98347;-71
2022/12/02 03:01:34;;;;;;;71.43;35.63;;;;;;;;;;4968710;28;101564;-72
2022/12/02 03:04:06;;;;;;;69.20;32.70;;;;;;;;;;4968623;28;98342;-72
2022/12/02 03:06:33;;;;;;;73.82;32.38;;;;;;;;;;4990078;28;98360;-71
2022/12/02 03:09:01;;;;;;;74.15;32.05;;;;;;;;;;4968774;28;98540;-70
2022/12/02 03:11:28;;;;;;;71.00;33.63;;;;;;;;;;4985594;28;99623;-71
2022/12/02 03:13:55;;;;;;;86.40;38.90;;;;;;;;;;4986448;28;100045;-71
2022/12/02 03:16:23;;;;;;;80.47;36.50;;;;;;;;;;4985317;28;98366;-71
2022/12/02 03:18:50;;;;;;;66.93;31.42;;;;;;;;;;4987067;28;99784;-70
2022/12/02 03:21:17;;;;;;;78.55;35.75;;;;;;;;;;5006491;28;100302;-71
2022/12/02 03:23:45;;;;;;;77.00;32.22;;;;;;;;;;5006314;28;98711;-72
2022/12/02 03:26:11;;;;;;;75.03;36.60;;;;;;;;;;4994008;28;99497;-71
2022/12/02 03:28:38;;;;;;;82.25;36.67;;;;;;;;;;4989364;28;100038;-71
2022/12/02 03:31:05;;;;;;;75.18;36.72;;;;;;;;;;4985818;28;98595;-71
2022/12/02 03:33:32;;;;;;;80.75;35.75;;;;;;;;;;4984529;28;99156;-71
2022/12/02 03:35:58;;;;;;;77.07;36.97;;;;;;;;;;4987513;28;98353;-71
2022/12/02 03:38:25;;;;;;;76.78;34.40;;;;;;;;;;4989804;28;99654;-71
2022/12/02 03:40:52;;;;;;;82.15;35.75;;;;;;;;;;4997981;28;99178;-71
2022/12/02 03:43:18;;;;;;;79.45;37.55;;;;;;;;;;5005970;28;98310;-71
2022/12/02 03:45:45;;;;;;;69.82;30.50;;;;;;;;;;5004288;28;98695;-71
2022/12/02 03:48:11;;;;;;;77.43;35.83;;;;;;;;;;5006399;28;99976;-71
2022/12/02 03:50:38;;;;;;;78.78;36.63;;;;;;;;;;5012173;28;99488;-71
2022/12/02 03:53:04;;;;;;;83.80;37.65;;;;;;;;;;5005297;28;100007;-71
2022/12/02 03:55:31;;;;;;;79.15;36.67;;;;;;;;;;4989235;28;98897;-71
2022/12/02 03:58:04;;;;;;;90.30;37.20;;;;;;;;;;4989742;28;98818;-72
2022/12/02 04:00:30;;;;;;;78.40;38.08;;;;;;;;;;4987839;28;99232;-71
2022/12/02 04:02:56;;;;;;;86.97;37.33;;;;;;;;;;4989694;28;98970;-71
2022/12/02 04:05:23;;;;;;;75.50;36.15;;;;;;;;;;4988458;28;99839;-71
2022/12/02 04:07:49;;;;;;;81.47;34.28;;;;;;;;;;4988854;28;100559;-71
2022/12/02 04:10:16;;;;;;;90.60;38.45;;;;;;;;;;4994006;28;98274;-72
2022/12/02 04:12:42;;;;;;;77.75;37.42;;;;;;;;;;5011868;28;99565;-71
2022/12/02 04:15:08;;;;;;;85.60;37.55;;;;;;;;;;5008225;28;98597;-72
2022/12/02 04:17:35;;;;;;;80.65;36.47;;;;;;;;;;5007853;28;98773;-71
2022/12/02 04:20:04;;;;;;;84.60;38.33;;;;;;;;;;5000253;28;99107;-71
2022/12/02 04:22:30;;;;;;;83.70;36.95;;;;;;;;;;4988028;28;98353;-71
2022/12/02 04:24:58;;;;;;;77.28;35.00;;;;;;;;;;4988479;28;99233;-71
2022/12/02 04:27:25;;;;;;;80.72;39.10;;;;;;;;;;4994254;28;99018;-72
2022/12/02 04:29:51;;;;;;;82.07;36.53;;;;;;;;;;5007089;28;98843;-71
2022/12/02 04:32:18;;;;;;;90.68;39.67;;;;;;;;;;5008722;28;99874;-71
2022/12/02 04:34:44;;;;;;;84.07;36.83;;;;;;;;;;5011892;28;100459;-71
2022/12/02 04:37:10;;;;;;;78.38;35.58;;;;;;;;;;5007943;28;99147;-71
2022/12/02 04:39:37;;;;;;;79.40;36.40;;;;;;;;;;5008355;28;99957;-71
2022/12/02 04:42:03;;;;;;;86.63;36.97;;;;;;;;;;5005642;28;98518;-71
2022/12/02 04:44:29;;;;;;;79.53;34.33;;;;;;;;;;5001696;28;99514;-71
2022/12/02 04:46:56;;;;;;;85.35;37.00;;;;;;;;;;4970868;28;102234;-71
2022/12/02 04:49:23;;;;;;;82.93;37.95;;;;;;;;;;4987321;28;99070;-71
2022/12/02 04:51:49;;;;;;;79.75;36.20;;;;;;;;;;4988611;28;99922;-70
2022/12/02 04:54:16;;;;;;;77.85;35.85;;;;;;;;;;4990811;28;100030;-70
2022/12/02 04:56:42;;;;;;;83.13;36.10;;;;;;;;;;4986994;28;98912;-71
2022/12/02 04:59:08;;;;;;;75.50;32.30;;;;;;;;;;4987605;28;99142;-71
2022/12/02 05:01:34;;;;;;;80.13;35.28;;;;;;;;;;4994584;28;98113;-71
2022/12/02 05:04:01;;;;;;;78.65;35.55;;;;;;;;;;4987543;28;98525;-71
2022/12/02 05:06:27;;;;;;;84.07;34.75;;;;;;;;;;4988339;28;99945;-71
2022/12/02 05:08:53;;;;;;;83.43;35.33;;;;;;;;;;4988656;28;98272;-71
2022/12/02 05:11:20;;;;;;;72.07;34.25;;;;;;;;;;4988152;28;99615;-71
2022/12/02 05:13:46;;;;;;;73.18;32.38;;;;;;;;;;4988023;28;100068;-71
2022/12/02 05:16:12;;;;;;;75.25;30.65;;;;;;;;;;4991217;28;98539;-71
2022/12/02 05:18:39;;;;;;;72.22;34.72;;;;;;;;;;4994533;28;100169;-71
2022/12/02 05:21:05;;;;;;;71.22;31.88;;;;;;;;;;5008130;28;98291;-71
2022/12/02 05:23:31;;;;;;;69.85;30.98;;;;;;;;;;5007823;28;99973;-71
2022/12/02 05:25:58;;;;;;;61.13;28.13;;;;;;;;;;5007205;28;100105;-71
2022/12/02 05:28:24;;;;;;;65.63;31.50;;;;;;;;;;5007572;28;98983;-71
2022/12/02 05:30:50;;;;;;;72.78;33.67;;;;;;;;;;5007343;28;98672;-71
2022/12/02 05:33:17;;;;;;;56.17;26.90;;;;;;;;;;5006374;28;99166;-71
2022/12/02 05:35:43;;;;;;;66.75;28.58;;;;;;;;;;4998595;28;98244;-71
2022/12/02 05:38:09;;;;;;;43.70;22.27;;;;;;;;;;4990345;28;99750;-71
2022/12/02 05:40:36;;;;;;;59.38;27.02;;;;;;;;;;4989475;28;98277;-71
2022/12/02 05:43:13;;;;;;;70.90;30.23;;;;;;;;;;5006860;28;99776;-71
2022/12/02 05:45:39;;;;;;;56.85;28.00;;;;;;;;;;5006563;28;99966;-71
2022/12/02 05:48:09;;;;;;;57.75;27.90;;;;;;;;;;5006987;28;98326;-71
2022/12/02 05:50:35;;;;;;;68.82;29.58;;;;;;;;;;5007796;28;99380;-71
2022/12/02 05:53:02;;;;;;;47.35;23.42;;;;;;;;;;4995489;28;99879;-71
2022/12/02 05:55:29;;;;;;;41.53;21.13;;;;;;;;;;4986613;28;98312;-71
2022/12/02 05:57:59;;;;;;;62.58;31.65;;;;;;;;;;4987567;28;98502;-71
2022/12/02 06:00:26;;;;;;;39.40;18.20;;;;;;;;;;4989930;28;99411;-71
2022/12/02 06:02:59;;;;;;;44.92;23.27;;;;;;;;;;4987843;28;98690;-71
2022/12/02 06:05:32;;;;;;;49.08;24.13;;;;;;;;;;4988143;28;99732;-71
2022/12/02 06:08:11;;;;;;;56.63;25.52;;;;;;;;;;4985929;28;98369;-70
2022/12/02 06:10:37;;;;;;;50.40;23.25;;;;;;;;;;5002100;28;98813;-71
2022/12/02 06:13:09;;;;;;;49.95;23.88;;;;;;;;;;5006450;28;98899;-71
2022/12/02 06:15:37;;;;;;;42.10;21.93;;;;;;;;;;5002621;28;98784;-71
2022/12/02 06:18:17;;;;;;;49.65;23.35;;;;;;;;;;4987231;28;98740;-71
2022/12/02 06:20:44;;;;;;;42.58;20.77;;;;;;;;;;4986185;28;99888;-71
2022/12/02 06:23:12;;;;;;;49.22;25.23;;;;;;;;;;4990777;28;98277;-71
2022/12/02 06:25:39;;;;;;;48.97;23.02;;;;;;;;;;4987346;28;99988;-71
2022/12/02 06:28:10;;;;;;;47.92;24.10;;;;;;;;;;4987234;28;98549;-70
2022/12/02 06:30:36;;;;;;;48.75;23.92;;;;;;;;;;4986748;28;99070;-71
2022/12/02 06:33:03;;;;;;;50.30;23.52;;;;;;;;;;4986509;28;100032;-71
2022/12/02 06:35:30;;;;;;;46.97;23.40;;;;;;;;;;4986084;28;98375;-71
2022/12/02 06:37:59;;;;;;;53.90;24.80;;;;;;;;;;4987381;28;99830;-71
2022/12/02 06:40:28;;;;;;;44.80;23.15;;;;;;;;;;4987286;28;100002;-71
2022/12/02 06:42:56;;;;;;;31.10;15.85;;;;;;;;;;5004464;28;98270;-71
2022/12/02 06:45:25;;;;;;;40.22;21.00;;;;;;;;;;4989472;28;98611;-71
2022/12/02 06:48:04;;;;;;;44.40;23.48;;;;;;;;;;4986342;28;98261;-71
2022/12/02 06:50:34;;;;;;;52.75;23.20;;;;;;;;;;5005419;28;99493;-71
2022/12/02 06:53:10;;;;;;;34.05;18.15;;;;;;;;;;5006661;28;100154;-71
2022/12/02 06:55:37;;;;;;;43.50;22.33;;;;;;;;;;5005768;28;98255;-71
2022/12/02 06:58:11;;;;;;;30.80;13.80;;;;;;;;;;4987487;28;101287;-71
2022/12/02 07:00:38;;;;;;;42.83;22.20;;;;;;;;;;4998203;28;99246;-70
2022/12/02 07:03:12;;;;;;;40.42;21.13;;;;;;;;;;4985825;28;98463;-71
2022/12/02 07:05:39;;;;;;;39.97;21.55;;;;;;;;;;4990108;28;99764;-70
2022/12/02 07:08:06;;;;;;;39.75;20.02;;;;;;;;;;4995582;28;98381;-70
2022/12/02 07:10:33;;;;;;;40.65;21.33;;;;;;;;;;5000647;28;99336;-71
2022/12/02 07:13:03;;;;;;;36.13;20.65;;;;;;;;;;5004385;28;99899;-73
2022/12/02 07:15:31;;;;;;;45.92;22.65;;;;;;;;;;5003616;28;98280;-72
2022/12/02 07:18:08;;;;;;;37.33;19.58;;;;;;;;;;5006012;28;99367;-72
2022/12/02 07:20:36;;;;;;;38.28;20.55;;;;;;;;;;4997945;28;99367;-72
2022/12/02 07:23:13;;;;;;;38.08;18.55;;;;;;;;;;5000351;28;98266;-72
2022/12/02 07:25:44;;;;;;;43.25;20.88;;;;;;;;;;5001425;28;99683;-72
2022/12/02 07:28:14;;;;;;;33.00;18.52;;;;;;;;;;5013159;28;99959;-71
2022/12/02 07:30:41;;;;;;;35.95;19.65;;;;;;;;;;5008643;28;99499;-72
2022/12/02 07:33:08;;;;;;;36.97;20.20;;;;;;;;;;5009766;28;99953;-71
2022/12/02 07:35:34;;;;;;;37.60;20.90;;;;;;;;;;5006791;28;98974;-71
2022/12/02 07:38:00;;;;;;;38.10;20.48;;;;;;;;;;5007937;28;99733;-71
2022/12/02 07:40:27;;;;;;;40.85;22.27;;;;;;;;;;5007463;28;98814;-71
2022/12/02 07:42:54;;;;;;;40.00;21.98;;;;;;;;;;5008540;28;98125;-72
2022/12/02 07:45:20;;;;;;;40.55;21.98;;;;;;;;;;5005584;28;99543;-72
2022/12/02 07:47:48;;;;;;;39.42;23.48;;;;;;;;;;4986546;28;100718;-71
2022/12/02 07:50:15;;;;;;;33.80;18.90;;;;;;;;;;5006497;28;99103;-71
2022/12/02 07:52:42;;;;;;;43.60;21.88;;;;;;;;;;5000898;28;100261;-71
2022/12/02 07:55:08;;;;;;;35.53;21.80;;;;;;;;;;5003010;28;100007;-71
2022/12/02 07:57:34;;;;;;;34.88;21.65;;;;;;;;;;4997177;28;99645;-72
2022/12/02 08:00:02;;;;;;;39.10;22.38;;;;;;;;;;5008727;28;100144;-72
2022/12/02 08:02:37;;;;;;;33.42;20.23;;;;;;;;;;5007018;28;98257;-72
2022/12/02 08:05:04;;;;;;;27.90;16.20;;;;;;;;;;5009801;28;99441;-72
2022/12/02 08:07:30;;;;;;;33.72;19.02;;;;;;;;;;5008316;28;100041;-72
2022/12/02 08:09:57;;;;;;;23.50;13.75;;;;;;;;;;5007401;28;100468;-72
2022/12/02 08:12:23;;;;;;;41.42;21.80;;;;;;;;;;5011342;28;99539;-72
2022/12/02 08:14:49;;;;;;;36.33;21.25;;;;;;;;;;5007992;28;98334;-72
2022/12/02 08:17:16;;;;;;;36.35;19.90;;;;;;;;;;5008774;28;98741;-71
2022/12/02 08:19:43;;;;;;;39.33;21.17;;;;;;;;;;5005900;28;100051;-72
2022/12/02 08:22:09;;;;;;;31.85;17.85;;;;;;;;;;4997979;28;98905;-71
2022/12/02 08:24:35;;;;;;;30.77;17.55;;;;;;;;;;4998431;28;99595;-71
2022/12/02 08:27:02;;;;;;;36.90;21.48;;;;;;;;;;4990837;28;100376;-72
2022/12/02 08:29:29;;;;;;;25.83;16.73;;;;;;;;;;4989008;28;98265;-72
2022/12/02 08:31:55;;;;;;;34.50;20.88;;;;;;;;;;4989061;28;99396;-72
2022/12/02 08:34:22;;;;;;;34.50;19.65;;;;;;;;;;4998930;28;99269;-72
2022/12/02 08:36:48;;;;;;;35.00;19.42;;;;;;;;;;5007883;28;98758;-72
2022/12/02 08:39:15;;;;;;;40.80;21.60;;;;;;;;;;5008659;28;100005;-72
2022/12/02 08:41:41;;;;;;;27.27;16.10;;;;;;;;;;5007625;28;98918;-72
2022/12/02 08:44:07;;;;;;;34.70;19.65;;;;;;;;;;4997817;28;99809;-72
2022/12/02 08:46:35;;;;;;;39.42;21.60;;;;;;;;;;5001103;28;99932;-72
2022/12/02 08:49:02;;;;;;;34.22;20.58;;;;;;;;;;4991296;28;98634;-72
2022/12/02 08:51:29;;;;;;;39.63;18.75;;;;;;;;;;4987915;28;98604;-72
2022/12/02 08:53:55;;;;;;;38.00;21.40;;;;;;;;;;4988045;28;99104;-71
2022/12/02 08:56:21;;;;;;;35.92;22.13;;;;;;;;;;4990464;28;98213;-72
2022/12/02 08:58:48;;;;;;;36.50;18.48;;;;;;;;;;4990999;28;101337;-72
2022/12/02 09:01:14;;;;;;;36.42;20.75;;;;;;;;;;4995645;28;99139;-72
2022/12/02 09:03:41;;;;;;;35.25;19.42;;;;;;;;;;4994068;28;99704;-74
2022/12/02 09:06:07;;;;;;;28.38;14.30;;;;;;;;;;4987666;28;101397;-73
2022/12/02 09:08:33;;;;;;;29.45;17.42;;;;;;;;;;4988217;28;98798;-73
2022/12/02 09:11:00;;;;;;;44.50;21.85;;;;;;;;;;4987992;28;99557;-73
2022/12/02 09:13:26;;;;;;;33.03;18.58;;;;;;;;;;4988086;28;99925;-73
2022/12/02 09:15:53;;;;;;;31.70;18.75;;;;;;;;;;4991940;28;98625;-73
2022/12/02 09:18:19;;;;;;;45.78;21.15;;;;;;;;;;4987816;28;100014;-73
2022/12/02 09:20:47;;;;;;;36.47;20.23;;;;;;;;;;4988863;28;103143;-73
2022/12/02 09:23:13;;;;;;;42.10;23.02;;;;;;;;;;4990549;28;99564;-73
2022/12/02 09:25:39;;;;;;;34.70;18.58;;;;;;;;;;4987073;28;100304;-73
2022/12/02 09:28:09;;;;;;;43.35;20.30;;;;;;;;;;4988769;28;98430;-73
2022/12/02 09:30:35;;;;;;;27.20;16.30;;;;;;;;;;4986726;28;98920;-73
2022/12/02 09:33:02;;;;;;;41.03;19.90;;;;;;;;;;4989111;28;100109;-73
2022/12/02 09:35:28;;;;;;;43.90;22.70;;;;;;;;;;4988295;28;98375;-73
2022/12/02 09:37:55;;;;;;;35.75;18.08;;;;;;;;;;4990417;28;99475;-73
2022/12/02 09:40:21;;;;;;;36.33;21.35;;;;;;;;;;4988082;28;98281;-72
2022/12/02 09:42:49;;;;;;;37.70;20.05;;;;;;;;;;4988488;28;101503;-73
2022/12/02 09:45:16;;;;;;;34.13;19.20;;;;;;;;;;4990774;28;100330;-73
2022/12/02 09:47:42;;;;;;;43.00;22.05;;;;;;;;;;5006690;28;98335;-73
2022/12/02 09:50:10;;;;;;;33.00;13.32;;;;;;;;;;5007037;28;99497;-73
2022/12/02 09:52:36;;;;;;;36.47;19.48;;;;;;;;;;5006544;28;100358;-72
2022/12/02 09:55:09;;;;;;;41.05;21.55;;;;;;;;;;5008088;28;98221;-73
2022/12/02 09:57:36;;;;;;;43.72;23.23;;;;;;;;;;5007580;28;99310;-72
2022/12/02 10:00:07;;;;;;;33.92;18.15;;;;;;;;;;4994525;28;100056;-72
2022/12/02 10:02:40;;;;;;;38.97;17.15;;;;;;;;;;4987299;28;99711;-72
2022/12/02 10:05:14;;;;;;;40.90;19.77;;;;;;;;;;4998401;28;100483;-72
2022/12/02 10:07:42;;;;;;;31.90;17.40;;;;;;;;;;5001866;28;99525;-72
2022/12/02 10:10:19;;;;;;;23.48;13.00;;;;;;;;;;4995090;28;99783;-72
2022/12/02 10:12:45;;;;;;;31.60;16.02;;;;;;;;;;4986489;28;100404;-73
2022/12/02 10:15:12;;;;;;;36.70;19.63;;;;;;;;;;4986899;28;99112;-73
2022/12/02 10:17:39;;;;;;;41.80;19.73;;;;;;;;;;4986973;28;99759;-73
2022/12/02 10:20:06;;;;;;;39.28;18.77;;;;;;;;;;4986601;28;100634;-73
2022/12/02 10:22:52;;;;;;;36.00;18.00;;;;;;;;;;4990255;28;98444;-72
2022/12/02 10:25:29;;;;;;;33.20;16.17;;;;;;;;;;4987046;28;100019;-72
2022/12/02 10:27:55;;;;;;;38.25;19.30;;;;;;;;;;4986288;28;98294;-73
2022/12/02 10:30:24;;;;;;;28.98;17.90;;;;;;;;;;4987269;28;99443;-73
2022/12/02 10:33:05;;;;;;;44.63;21.45;;;;;;;;;;4987221;28;100097;-73
2022/12/02 10:35:45;;;;;;;39.92;21.02;;;;;;;;;;5000903;28;98549;-73
2022/12/02 10:38:27;;;;;;;41.90;22.63;;;;;;;;;;5006868;28;99673;-73
2022/12/02 10:41:09;;;;;;;42.22;21.77;;;;;;;;;;5004170;28;100369;-72
2022/12/02 10:43:36;;;;;;;47.22;21.30;;;;;;;;;;4995326;28;98717;-72
2022/12/02 10:46:02;;;;;;;46.05;21.77;;;;;;;;;;4996915;28;100113;-72
2022/12/02 10:48:28;;;;;;;44.60;21.88;;;;;;;;;;5001173;28;99125;-72
2022/12/02 10:50:55;;;;;;;37.35;19.85;;;;;;;;;;5004353;28;99853;-72
2022/12/02 10:53:24;;;;;;;38.80;18.58;;;;;;;;;;5007187;28;99148;-71
2022/12/02 10:55:50;;;;;;;48.88;22.85;;;;;;;;;;5002606;28;98365;-71
2022/12/02 10:58:23;;;;;;;37.35;19.25;;;;;;;;;;5005969;28;98837;-72
2022/12/02 11:00:49;;;;;;;38.03;18.77;;;;;;;;;;4998632;28;100204;-71
2022/12/02 11:03:16;;;;;;;42.13;19.48;;;;;;;;;;5005593;28;98359;-71
2022/12/02 11:05:42;;;;;;;45.78;22.00;;;;;;;;;;5004849;28;98743;-71
2022/12/02 11:08:15;;;;;;;45.22;16.92;;;;;;;;;;5008644;28;98303;-71
2022/12/02 11:10:45;;;;;;;48.90;22.40;;;;;;;;;;4999027;28;100089;-72
2022/12/02 11:13:12;;;;;;;41.05;21.88;;;;;;;;;;4989500;28;100122;-72
2022/12/02 11:15:41;;;;;;;40.15;18.13;;;;;;;;;;4991823;28;99012;-72
2022/12/02 11:18:30;;;;;;;40.92;20.48;;;;;;;;;;4998050;28;101620;-72
2022/12/02 11:21:06;;;;;;;47.58;21.50;;;;;;;;;;4994782;28;99147;-72
2022/12/02 11:23:33;;;;;;;45.08;20.00;;;;;;;;;;5003126;28;98518;-75
2022/12/02 11:26:01;;;;;;;42.03;19.40;;;;;;;;;;4991585;28;99410;-73
2022/12/02 11:28:27;;;;;;;50.78;25.08;;;;;;;;;;4989531;28;100163;-73
2022/12/02 11:31:09;;;;;;;50.28;23.48;;;;;;;;;;4985454;28;99874;-73
2022/12/02 11:33:50;;;;;;;50.50;23.38;;;;;;;;;;4986011;28;100292;-73
2022/12/02 11:36:20;;;;;;;46.90;23.05;;;;;;;;;;4986434;28;98371;-73
2022/12/02 11:38:49;;;;;;;39.60;20.27;;;;;;;;;;4985365;28;99294;-73
2022/12/02 11:41:19;;;;;;;55.20;24.70;;;;;;;;;;4986229;28;99877;-73
2022/12/02 11:43:45;;;;;;;48.72;21.75;;;;;;;;;;4985798;28;98397;-73
2022/12/02 11:46:13;;;;;;;46.47;21.10;;;;;;;;;;4985103;28;99351;-73
2022/12/02 11:48:47;;;;;;;53.75;25.05;;;;;;;;;;4985408;28;100393;-73
2022/12/02 11:51:37;;;;;;;62.58;25.40;;;;;;;;;;4988809;28;98309;-73
2022/12/02 11:54:03;;;;;;;56.50;25.08;;;;;;;;;;5005290;28;100014;-73
2022/12/02 11:56:33;;;;;;;44.55;27.13;;;;;;;;;;5005274;28;98271;-74
2022/12/02 11:59:00;;;;;;;55.35;26.67;;;;;;;;;;5005317;28;99466;-73
2022/12/02 12:01:26;;;;;;;45.25;21.45;;;;;;;;;;5002792;28;100532;-75
2022/12/02 12:03:53;;;;;;;53.45;24.58;;;;;;;;;;5000809;28;98330;-72
2022/12/02 12:06:19;;;;;;;51.08;23.98;;;;;;;;;;5002596;28;99993;-72
2022/12/02 12:08:48;;;;;;;48.05;23.65;;;;;;;;;;5000961;28;99855;-71
2022/12/02 12:11:15;;;;;;;41.60;21.65;;;;;;;;;;5006927;28;98714;-72
2022/12/02 12:13:58;;;;;;;53.28;27.02;;;;;;;;;;5008503;28;98536;-72
2022/12/02 12:16:25;;;;;;;63.95;29.63;;;;;;;;;;5003050;28;98811;-72
2022/12/02 12:18:51;;;;;;;69.85;26.25;;;;;;;;;;5004920;28;99233;-72
2022/12/02 12:21:30;;;;;;;54.22;25.33;;;;;;;;;;5005823;28;99835;-71
2022/12/02 12:24:24;;;;;;;52.33;22.67;;;;;;;;;;5003698;28;98300;-72
2022/12/02 12:27:03;;;;;;;60.45;25.95;;;;;;;;;;5008145;28;99253;-72
2022/12/02 12:29:31;;;;;;;40.70;20.45;;;;;;;;;;5003684;28;100117;-71
2022/12/02 12:31:57;;;;;;;43.08;21.25;;;;;;;;;;4996822;28;99813;-71
2022/12/02 12:34:24;;;;;;;52.63;26.23;;;;;;;;;;5008197;28;99524;-72
2022/12/02 12:36:50;;;;;;;55.17;22.40;;;;;;;;;;4999279;28;101265;-72
2022/12/02 12:39:17;;;;;;;55.33;23.38;;;;;;;;;;5009101;28;99444;-71
2022/12/02 12:41:44;;;;;;;59.25;25.17;;;;;;;;;;5003896;28;100195;-73
2022/12/02 12:44:28;;;;;;;55.63;25.35;;;;;;;;;;5008447;28;98154;-72
2022/12/02 12:46:58;;;;;;;50.72;25.85;;;;;;;;;;4999905;28;99829;-72
2022/12/02 12:49:25;;;;;;;28.15;15.63;;;;;;;;;;5002082;28;100270;-72
2022/12/02 12:51:52;;;;;;;43.90;21.45;;;;;;;;;;4997116;28;99670;-74
2022/12/02 12:54:18;;;;;;;42.97;20.05;;;;;;;;;;5002773;28;99430;-74
2022/12/02 12:56:45;;;;;;;41.97;18.40;;;;;;;;;;4991779;28;99943;-73
2022/12/02 12:59:13;;;;;;;40.08;19.35;;;;;;;;;;4998600;28;99811;-75
2022/12/02 13:01:39;;;;;;;40.75;17.73;;;;;;;;;;5003511;28;100173;-76
2022/12/02 13:04:06;;;;;;;42.90;18.55;;;;;;;;;;5003124;28;98188;-75
2022/12/02 13:06:32;;;;;;;39.17;19.98;;;;;;;;;;5003256;28;99440;-75
2022/12/02 13:09:07;;;;;;;44.10;21.60;;;;;;;;;;5001257;28;99905;-75
2022/12/02 13:11:33;;;;;;;46.97;18.58;;;;;;;;;;4997119;28;98314;-75
2022/12/02 13:14:00;;;;;;;41.30;19.85;;;;;;;;;;5003877;28;98756;-75
2022/12/02 13:16:26;;;;;;;31.83;15.77;;;;;;;;;;5005120;28;99960;-75
2022/12/02 13:18:53;;;;;;;38.25;19.58;;;;;;;;;;5008977;28;98280;-74
2022/12/02 13:21:19;;;;;;;34.97;17.52;;;;;;;;;;5003690;28;99936;-75
2022/12/02 13:23:46;;;;;;;42.97;18.60;;;;;;;;;;4996973;28;99090;-75
2022/12/02 13:26:12;;;;;;;40.90;19.67;;;;;;;;;;4992086;28;99095;-73
2022/12/02 13:28:40;;;;;;;25.50;14.93;;;;;;;;;;4994449;28;100061;-74
2022/12/02 13:31:07;;;;;;;38.17;17.05;;;;;;;;;;5003152;28;98729;-73
2022/12/02 13:33:33;;;;;;;27.45;13.45;;;;;;;;;;5007609;28;98439;-74
2022/12/02 13:36:00;;;;;;;28.88;12.35;;;;;;;;;;5004548;28;100038;-73
2022/12/02 13:38:26;;;;;;;21.00;10.18;;;;;;;;;;5005367;28;98587;-73
2022/12/02 13:40:52;;;;;;;15.40;8.15;;;;;;;;;;5008204;28;99781;-73
2022/12/02 13:43:19;;;;;;;20.50;11.20;;;;;;;;;;5005403;28;98320;-74
2022/12/02 13:45:45;;;;;;;19.02;11.38;;;;;;;;;;4993901;28;99476;-74
2022/12/02 13:48:11;;;;;;;15.10;9.15;;;;;;;;;;5001674;28;99037;-74
2022/12/02 13:50:39;;;;;;;21.20;11.02;;;;;;;;;;5005558;28;98391;-74
2022/12/02 13:53:05;;;;;;;21.17;11.98;;;;;;;;;;5006296;28;99664;-74
2022/12/02 13:55:31;;;;;;;21.42;11.43;;;;;;;;;;5004378;28;98836;-74
2022/12/02 13:57:58;;;;;;;12.02;8.07;;;;;;;;;;5006142;28;99945;-74
2022/12/02 14:00:24;;;;;;;20.98;11.70;;;;;;;;;;5001415;28;98841;-75
2022/12/02 14:02:50;;;;;;;12.20;8.68;;;;;;;;;;5004914;28;99867;-76
2022/12/02 14:05:17;;;;;;;19.98;9.98;;;;;;;;;;5006940;28;99515;-72
2022/12/02 14:07:43;;;;;;;11.25;7.18;;;;;;;;;;5000607;28;100043;-72
2022/12/02 14:10:10;;;;;;;18.13;9.38;;;;;;;;;;5005780;28;98866;-73
2022/12/02 14:12:36;;;;;;;16.98;10.32;;;;;;;;;;5006016;28;99489;-73
2022/12/02 14:15:03;;;;;;;14.43;9.35;;;;;;;;;;5004449;28;100174;-73
2022/12/02 14:17:29;;;;;;;17.65;10.65;;;;;;;;;;4998294;28;98640;-73
2022/12/02 14:19:56;;;;;;;20.67;11.00;;;;;;;;;;4998654;28;99502;-72
2022/12/02 14:22:22;;;;;;;20.35;10.80;;;;;;;;;;5003700;28;98908;-74